createdAt,value
2018-07-23T00:00:46.523Z,0.00
2018-07-23T00:02:18.094Z,0.00
2018-07-23T00:03:49.665Z,0.00
2018-07-23T00:05:21.235Z,0.00
2018-07-23T00:06:52.806Z,0.00
2018-07-23T00:08:24.477Z,0.00
2018-07-23T00:09:55.947Z,0.00
2018-07-23T00:11:27.518Z,0.00
2018-07-23T00:12:59.090Z,0.00
2018-07-23T00:14:30.910Z,0.00
2018-07-23T00:16:02.231Z,0.00
2018-07-23T00:17:33.802Z,0.00
2018-07-23T00:19:05.372Z,0.00
2018-07-23T00:20:36.943Z,0.00
2018-07-23T00:22:08.513Z,0.00
2018-07-23T00:23:40.084Z,0.00
2018-07-23T00:25:11.655Z,0.00
2018-07-23T00:26:43.330Z,0.00
2018-07-23T00:28:14.799Z,0.00
2018-07-23T00:29:46.367Z,0.00
2018-07-23T00:31:17.937Z,0.00
2018-07-23T00:32:49.507Z,0.00
2018-07-23T00:34:21.079Z,0.00
2018-07-23T00:35:52.649Z,0.00
2018-07-23T00:37:24.222Z,0.00
2018-07-23T00:38:55.790Z,0.00
2018-07-23T00:40:27.405Z,0.00
2018-07-23T00:41:58.932Z,0.00
2018-07-23T00:43:30.502Z,0.00
2018-07-23T00:45:02.424Z,0.00
2018-07-23T00:46:33.643Z,0.00
2018-07-23T00:48:05.214Z,0.00
2018-07-23T00:49:36.786Z,0.00
2018-07-23T00:51:08.354Z,0.00
2018-07-23T00:52:39.925Z,0.00
2018-07-23T00:54:11.495Z,0.00
2018-07-23T00:55:43.067Z,0.00
2018-07-23T00:57:14.635Z,0.00
2018-07-23T00:58:46.207Z,0.00
2018-07-23T01:00:17.782Z,0.00
2018-07-23T01:01:49.348Z,0.00
2018-07-23T01:03:21.020Z,0.00
2018-07-23T01:04:52.490Z,0.00
2018-07-23T01:06:24.061Z,0.00
2018-07-23T01:07:55.631Z,0.00
2018-07-23T01:09:27.305Z,0.00
2018-07-23T01:10:58.772Z,0.00
2018-07-23T01:12:30.343Z,0.00
2018-07-23T01:14:01.914Z,0.00
2018-07-23T01:15:33.485Z,0.00
2018-07-23T01:17:05.055Z,0.00
2018-07-23T01:18:36.630Z,0.00
2018-07-23T01:20:08.197Z,0.00
2018-07-23T01:21:39.868Z,0.00
2018-07-23T01:23:11.338Z,0.00
2018-07-23T01:24:42.908Z,0.00
2018-07-23T01:26:14.478Z,0.00
2018-07-23T01:27:46.149Z,0.00
2018-07-23T01:29:17.620Z,0.00
2018-07-23T01:30:49.190Z,0.00
2018-07-23T01:32:20.760Z,0.00
2018-07-23T01:33:52.433Z,0.00
2018-07-23T01:35:23.914Z,0.00
2018-07-23T01:36:55.472Z,0.00
2018-07-23T01:38:27.041Z,0.00
2018-07-23T01:39:58.864Z,0.00
2018-07-23T01:41:30.185Z,0.00
2018-07-23T01:43:01.754Z,0.00
2018-07-23T01:44:33.326Z,0.00
2018-07-23T01:46:05.146Z,0.00
2018-07-23T01:47:36.466Z,0.00
2018-07-23T01:49:08.041Z,0.00
2018-07-23T01:50:39.606Z,0.00
2018-07-23T01:52:11.177Z,0.00
2018-07-23T01:53:42.752Z,0.00
2018-07-23T01:55:14.318Z,0.00
2018-07-23T01:56:46.340Z,0.00
2018-07-23T01:58:17.661Z,0.00
2018-07-23T01:59:49.034Z,0.00
2018-07-23T02:01:20.601Z,0.00
2018-07-23T02:02:52.171Z,0.00
2018-07-23T02:04:24.047Z,0.00
2018-07-23T02:05:55.313Z,0.00
2018-07-23T02:07:26.884Z,0.00
2018-07-23T02:08:58.455Z,0.00
2018-07-23T02:10:30.076Z,0.00
2018-07-23T02:12:01.599Z,0.00
2018-07-23T02:13:33.167Z,0.00
2018-07-23T02:15:04.738Z,0.00
2018-07-23T02:16:36.660Z,0.00
2018-07-23T02:18:07.915Z,0.00
2018-07-23T02:19:39.451Z,0.00
2018-07-23T02:21:11.022Z,0.00
2018-07-23T02:22:42.591Z,0.00
2018-07-23T02:24:14.162Z,0.00
2018-07-23T02:25:46.239Z,0.00
2018-07-23T02:27:17.303Z,0.00
2018-07-23T02:28:48.875Z,0.00
2018-07-23T02:30:20.447Z,0.00
2018-07-23T02:31:52.015Z,0.00
2018-07-23T02:33:23.587Z,0.00
2018-07-23T02:34:55.257Z,0.00
2018-07-23T02:36:26.727Z,0.00
2018-07-23T02:37:58.707Z,0.00
2018-07-23T02:39:30.797Z,0.00
2018-07-23T02:41:01.439Z,0.00
2018-07-23T02:42:33.018Z,0.00
2018-07-23T02:44:04.578Z,0.00
2018-07-23T02:45:36.150Z,0.00
2018-07-23T02:47:07.970Z,0.00
2018-07-23T02:48:39.291Z,0.00
2018-07-23T02:50:10.859Z,0.00
2018-07-23T02:51:42.430Z,0.00
2018-07-23T02:53:14.100Z,0.00
2018-07-23T02:54:45.570Z,0.00
2018-07-23T02:56:17.143Z,0.00
2018-07-23T02:57:48.711Z,0.00
2018-07-23T02:59:20.282Z,0.00
2018-07-23T03:00:51.850Z,0.00
2018-07-23T03:02:23.421Z,0.00
2018-07-23T03:03:54.994Z,0.00
2018-07-23T03:05:26.562Z,0.00
2018-07-23T03:06:58.132Z,0.00
2018-07-23T03:08:29.701Z,0.00
2018-07-23T03:10:01.275Z,0.00
2018-07-23T03:11:32.943Z,0.00
2018-07-23T03:13:04.411Z,0.00
2018-07-23T03:14:35.983Z,0.00
2018-07-23T03:16:07.551Z,0.00
2018-07-23T03:17:39.372Z,0.00
2018-07-23T03:19:10.692Z,0.00
2018-07-23T03:20:42.261Z,0.00
2018-07-23T03:22:13.832Z,0.00
2018-07-23T03:23:45.402Z,0.00
2018-07-23T03:25:16.975Z,0.00
2018-07-23T03:26:48.542Z,0.00
2018-07-23T03:28:20.112Z,0.00
2018-07-23T03:29:51.882Z,0.00
2018-07-23T03:31:23.253Z,0.00
2018-07-23T03:32:54.821Z,0.00
2018-07-23T03:34:26.392Z,0.00
2018-07-23T03:35:58.063Z,0.00
2018-07-23T03:37:29.532Z,0.00
2018-07-23T03:39:01.101Z,0.00
2018-07-23T03:40:32.673Z,0.00
2018-07-23T03:42:04.247Z,0.00
2018-07-23T03:43:35.814Z,0.00
2018-07-23T03:45:07.383Z,0.00
2018-07-23T03:46:38.953Z,0.00
2018-07-23T03:48:10.873Z,0.00
2018-07-23T03:49:42.092Z,0.00
2018-07-23T03:51:13.661Z,0.00
2018-07-23T03:52:45.234Z,0.00
2018-07-23T03:54:16.901Z,0.00
2018-07-23T03:55:48.370Z,0.00
2018-07-23T03:57:19.941Z,0.00
2018-07-23T03:58:51.510Z,0.00
2018-07-23T04:00:23.180Z,0.00
2018-07-23T04:01:54.649Z,0.00
2018-07-23T04:03:26.270Z,0.00
2018-07-23T04:04:57.792Z,0.00
2018-07-23T04:06:29.459Z,0.00
2018-07-23T04:08:00.929Z,0.00
2018-07-23T04:09:32.497Z,0.00
2018-07-23T04:11:04.068Z,0.00
2018-07-23T04:12:35.741Z,0.00
2018-07-23T04:14:07.212Z,0.00
2018-07-23T04:15:38.828Z,0.00
2018-07-23T04:17:10.349Z,0.00
2018-07-23T04:18:41.938Z,0.00
2018-07-23T04:20:13.484Z,0.00
2018-07-23T04:21:45.054Z,0.00
2018-07-23T04:23:16.624Z,0.00
2018-07-23T04:24:48.293Z,0.00
2018-07-23T04:26:19.762Z,0.00
2018-07-23T04:27:51.332Z,0.00
2018-07-23T04:29:22.902Z,0.00
2018-07-23T04:30:54.516Z,0.00
2018-07-23T04:32:26.040Z,0.00
2018-07-23T04:33:57.614Z,0.00
2018-07-23T04:35:29.180Z,0.00
2018-07-23T04:37:00.899Z,0.00
2018-07-23T04:38:32.318Z,0.00
2018-07-23T04:40:03.888Z,0.00
2018-07-23T04:41:35.457Z,0.00
2018-07-23T04:43:07.132Z,0.00
2018-07-23T04:44:38.643Z,0.00
2018-07-23T04:46:10.165Z,0.00
2018-07-23T04:47:41.734Z,0.00
2018-07-23T04:49:13.354Z,0.00
2018-07-23T04:50:44.890Z,0.00
2018-07-23T04:52:16.442Z,0.00
2018-07-23T04:53:48.011Z,0.00
2018-07-23T04:55:19.579Z,0.00
2018-07-23T04:58:22.718Z,0.00
2018-07-23T04:59:54.288Z,0.00
2018-07-23T05:01:26.111Z,0.00
2018-07-23T05:02:57.425Z,0.00
2018-07-23T05:04:29.006Z,0.00
2018-07-23T05:06:00.564Z,0.00
2018-07-23T05:07:32.234Z,0.00
2018-07-23T05:09:03.702Z,0.00
2018-07-23T05:10:35.271Z,0.00
2018-07-23T05:12:06.839Z,0.00
2018-07-23T05:13:38.409Z,0.00
2018-07-23T05:15:09.978Z,0.00
2018-07-23T05:16:41.548Z,0.00
2018-07-23T05:18:13.116Z,0.00
2018-07-23T05:19:45.037Z,0.00
2018-07-23T05:21:16.256Z,0.00
2018-07-23T05:22:47.824Z,0.00
2018-07-23T05:24:19.395Z,0.00
2018-07-23T05:25:50.968Z,0.00
2018-07-23T05:27:22.532Z,0.00
2018-07-23T05:28:54.103Z,0.00
2018-07-23T05:30:25.671Z,0.00
2018-07-23T05:31:57.240Z,0.00
2018-07-23T05:33:28.810Z,0.00
2018-07-23T05:35:00.378Z,0.00
2018-07-23T05:36:31.950Z,0.00
2018-07-23T05:38:03.617Z,0.00
2018-07-23T05:39:35.087Z,0.00
2018-07-23T05:41:06.657Z,0.00
2018-07-23T05:42:38.227Z,0.00
2018-07-23T05:44:09.796Z,0.00
2018-07-23T05:45:41.365Z,0.00
2018-07-23T05:47:12.936Z,0.00
2018-07-23T05:48:44.503Z,0.00
2018-07-23T05:50:16.324Z,0.00
2018-07-23T05:51:47.641Z,0.00
2018-07-23T05:53:19.211Z,0.00
2018-07-23T05:54:50.780Z,0.00
2018-07-23T05:56:22.450Z,0.00
2018-07-23T05:57:53.920Z,0.00
2018-07-23T05:59:25.507Z,0.00
2018-07-23T06:00:57.058Z,0.00
2018-07-23T06:02:28.627Z,0.00
2018-07-23T06:04:00.198Z,0.00
2018-07-23T06:05:31.767Z,0.00
2018-07-23T06:07:03.499Z,0.00
2018-07-23T06:08:35.056Z,0.00
2018-07-23T06:10:06.475Z,0.00
2018-07-23T06:11:38.044Z,0.00
2018-07-23T06:13:09.618Z,0.00
2018-07-23T06:14:41.785Z,0.00
2018-07-23T06:16:12.752Z,0.00
2018-07-23T06:17:44.324Z,0.00
2018-07-23T06:19:15.893Z,0.00
2018-07-23T06:20:47.613Z,0.00
2018-07-23T06:22:19.034Z,0.00
2018-07-23T06:23:50.603Z,0.00
2018-07-23T06:25:22.171Z,0.00
2018-07-23T06:26:53.741Z,0.00
2018-07-23T06:28:25.313Z,0.00
2018-07-23T06:29:56.910Z,0.00
2018-07-23T06:31:28.449Z,0.00
2018-07-23T06:33:00.219Z,0.00
2018-07-23T06:34:31.593Z,0.00
2018-07-23T06:36:03.158Z,0.00
2018-07-23T06:37:34.748Z,0.00
2018-07-23T06:39:06.399Z,0.00
2018-07-23T06:40:37.866Z,0.00
2018-07-23T06:42:09.436Z,0.00
2018-07-23T06:43:41.005Z,0.00
2018-07-23T06:45:12.576Z,0.00
2018-07-23T06:46:44.187Z,0.00
2018-07-23T06:48:15.714Z,0.00
2018-07-23T06:49:47.284Z,0.00
2018-07-23T06:51:19.205Z,0.00
2018-07-23T06:52:50.425Z,0.00
2018-07-23T06:54:21.993Z,0.00
2018-07-23T06:55:53.562Z,0.00
2018-07-23T06:57:25.201Z,0.00
2018-07-23T06:58:56.702Z,0.00
2018-07-23T07:00:28.320Z,0.00
2018-07-23T07:01:59.841Z,0.00
2018-07-23T07:03:31.515Z,0.00
2018-07-23T07:05:02.981Z,0.00
2018-07-23T07:06:34.550Z,0.00
2018-07-23T07:08:06.120Z,0.00
2018-07-23T07:09:37.791Z,0.00
2018-07-23T07:11:09.262Z,0.00
2018-07-23T07:12:40.830Z,0.00
2018-07-23T07:14:12.399Z,0.00
2018-07-23T07:15:44.117Z,0.00
2018-07-23T07:17:15.537Z,0.00
2018-07-23T07:18:47.107Z,0.00
2018-07-23T07:20:18.675Z,0.00
2018-07-23T07:21:50.396Z,0.00
2018-07-23T07:23:21.815Z,0.00
2018-07-23T07:24:53.385Z,0.00
2018-07-23T07:26:24.954Z,0.00
2018-07-23T07:27:56.625Z,0.00
2018-07-23T07:29:28.096Z,0.00
2018-07-23T07:30:59.667Z,0.00
2018-07-23T07:32:31.237Z,0.00
2018-07-23T07:34:02.904Z,0.00
2018-07-23T07:35:34.372Z,0.00
2018-07-23T07:37:05.944Z,0.00
2018-07-23T07:38:37.512Z,0.00
2018-07-23T07:40:09.182Z,0.00
2018-07-23T07:41:40.651Z,0.00
2018-07-23T07:43:12.220Z,0.00
2018-07-23T07:44:43.794Z,0.00
2018-07-23T07:46:15.610Z,0.00
2018-07-23T07:47:46.930Z,0.00
2018-07-23T07:49:18.498Z,0.00
2018-07-23T07:50:50.067Z,0.00
2018-07-23T07:52:21.840Z,0.00
2018-07-23T07:53:53.206Z,0.00
2018-07-23T07:55:24.776Z,0.00
2018-07-23T07:56:56.397Z,0.00
2018-07-23T07:58:27.917Z,0.00
2018-07-23T07:59:59.487Z,0.00
2018-07-23T08:01:31.056Z,0.00
2018-07-23T08:03:02.626Z,0.00
2018-07-23T08:04:34.396Z,0.00
2018-07-23T08:06:05.765Z,0.00
2018-07-23T08:07:37.333Z,0.00
2018-07-23T08:09:08.947Z,0.00
2018-07-23T08:10:40.474Z,0.00
2018-07-23T08:12:12.045Z,0.00
2018-07-23T08:13:43.613Z,0.00
2018-07-23T08:15:15.182Z,0.00
2018-07-23T08:16:46.909Z,0.00
2018-07-23T08:18:18.321Z,0.00
2018-07-23T08:19:49.891Z,0.00
2018-07-23T08:21:21.462Z,0.00
2018-07-23T08:22:53.281Z,0.00
2018-07-23T08:24:24.603Z,0.00
2018-07-23T08:25:56.172Z,0.00
2018-07-23T08:27:27.741Z,0.00
2018-07-23T08:28:59.310Z,0.00
2018-07-23T08:30:30.880Z,0.00
2018-07-23T08:32:02.558Z,0.00
2018-07-23T08:33:34.019Z,0.00
2018-07-23T08:35:05.690Z,0.00
2018-07-23T08:36:37.158Z,0.00
2018-07-23T08:38:08.728Z,0.00
2018-07-23T08:39:40.312Z,0.00
2018-07-23T08:41:11.969Z,0.00
2018-07-23T08:42:43.437Z,0.00
2018-07-23T08:44:15.007Z,0.00
2018-07-23T08:45:46.578Z,0.00
2018-07-23T08:47:18.253Z,0.00
2018-07-23T08:48:49.719Z,0.00
2018-07-23T08:50:21.288Z,0.00
2018-07-23T08:51:52.858Z,0.00
2018-07-23T08:53:24.677Z,0.00
2018-07-23T08:54:55.995Z,0.00
2018-07-23T08:56:27.566Z,0.00
2018-07-23T08:57:59.135Z,0.00
2018-07-23T08:59:30.828Z,0.00
2018-07-23T09:01:02.276Z,0.00
2018-07-23T09:02:33.847Z,0.00
2018-07-23T09:04:05.417Z,0.00
2018-07-23T09:05:37.088Z,0.00
2018-07-23T09:07:08.557Z,0.00
2018-07-23T09:08:40.191Z,0.00
2018-07-23T09:10:11.701Z,0.00
2018-07-23T09:11:43.267Z,0.00
2018-07-23T09:13:14.845Z,0.00
2018-07-23T09:14:46.408Z,0.00
2018-07-23T09:16:17.978Z,0.00
2018-07-23T09:17:49.648Z,0.00
2018-07-23T09:19:21.117Z,0.00
2018-07-23T09:20:52.687Z,0.00
2018-07-23T09:22:24.257Z,0.00
2018-07-23T09:23:56.201Z,4.00
2018-07-23T09:25:27.397Z,0.00
2018-07-23T09:26:58.967Z,4.00
2018-07-23T09:28:30.537Z,8.00
2018-07-23T09:30:02.107Z,8.00
2018-07-23T09:31:33.682Z,16.00
2018-07-23T09:33:05.258Z,24.00
2018-07-23T09:34:36.820Z,32.00
2018-07-23T09:36:08.589Z,44.00
2018-07-23T09:37:39.957Z,64.00
2018-07-23T09:39:11.525Z,84.00
2018-07-23T09:40:43.095Z,112.00
2018-07-23T09:42:14.666Z,152.00
2018-07-23T09:43:46.234Z,188.00
2018-07-23T09:45:17.804Z,220.00
2018-07-23T09:46:49.374Z,256.00
2018-07-23T09:48:21.348Z,292.00
2018-07-23T09:49:52.515Z,356.00
2018-07-23T09:51:24.085Z,420.00
2018-07-23T09:52:55.654Z,476.00
2018-07-23T09:54:27.324Z,572.00
2018-07-23T09:55:58.794Z,688.00
2018-07-23T09:57:30.363Z,792.00
2018-07-23T09:59:01.937Z,940.00
2018-07-23T10:00:33.501Z,1064.00
2018-07-23T10:02:05.072Z,1240.00
2018-07-23T10:03:36.669Z,1408.00
2018-07-23T10:05:08.218Z,1524.00
2018-07-23T10:06:39.783Z,1676.00
2018-07-23T10:08:11.351Z,1820.00
2018-07-23T10:09:42.922Z,1928.00
2018-07-23T10:11:14.491Z,2228.00
2018-07-23T10:12:46.162Z,2276.00
2018-07-23T10:14:17.652Z,2516.00
2018-07-23T10:15:49.505Z,2696.00
2018-07-23T10:17:20.772Z,2856.00
2018-07-23T10:18:52.373Z,3084.00
2018-07-23T10:20:23.920Z,3396.00
2018-07-23T10:21:55.841Z,3696.00
2018-07-23T10:23:27.410Z,3892.00
2018-07-23T10:24:58.621Z,4100.00
2018-07-23T10:26:30.676Z,4492.00
2018-07-23T10:28:02.277Z,4924.00
2018-07-23T10:29:33.577Z,5300.00
2018-07-23T10:31:05.290Z,5604.00
2018-07-23T10:32:36.590Z,5692.00
2018-07-23T10:34:08.278Z,5756.00
2018-07-23T10:35:39.611Z,5824.00
2018-07-23T10:37:11.183Z,5824.00
2018-07-23T10:38:42.991Z,5932.00
2018-07-23T10:40:15.055Z,5784.00
2018-07-23T10:41:46.198Z,5996.00
2018-07-23T10:43:17.988Z,6160.00
2018-07-23T10:44:49.214Z,6880.00
2018-07-23T10:46:20.684Z,7732.00
2018-07-23T10:47:52.174Z,7784.00
2018-07-23T10:49:23.919Z,7252.00
2018-07-23T10:50:55.636Z,7864.00
2018-07-23T10:52:26.886Z,7940.00
2018-07-23T10:53:58.457Z,7936.00
2018-07-23T10:55:30.028Z,8416.00
2018-07-23T10:57:01.602Z,9008.00
2018-07-23T10:58:33.372Z,9788.00
2018-07-23T11:00:04.741Z,9032.00
2018-07-23T11:03:08.412Z,11336.00
2018-07-23T11:04:39.758Z,11148.00
2018-07-23T11:06:11.556Z,12348.00
2018-07-23T11:07:42.601Z,13332.00
2018-07-23T11:09:14.803Z,13764.00
2018-07-23T11:10:45.739Z,14456.00
2018-07-23T11:13:49.666Z,16672.00
2018-07-23T11:15:20.497Z,16340.00
2018-07-23T11:16:52.064Z,16308.00
2018-07-23T11:26:02.080Z,16540.00
2018-07-23T11:27:33.242Z,16772.00
2018-07-23T11:29:04.813Z,16232.00
2018-07-23T11:30:36.185Z,16908.00
2018-07-23T11:32:07.822Z,17204.00
2018-07-23T11:33:39.337Z,17856.00
2018-07-23T11:35:11.114Z,18688.00
2018-07-23T11:36:42.496Z,19200.00
2018-07-23T11:38:14.261Z,20064.00
2018-07-23T11:39:45.631Z,19584.00
2018-07-23T11:41:17.511Z,20480.00
2018-07-23T11:42:48.967Z,20128.00
2018-07-23T11:44:20.965Z,19392.00
2018-07-23T11:45:52.642Z,20512.00
2018-07-23T11:47:23.726Z,21312.00
2018-07-23T11:48:55.290Z,21216.00
2018-07-23T11:50:26.661Z,20960.00
2018-07-23T11:51:58.440Z,21152.00
2018-07-23T11:53:29.887Z,20384.00
2018-07-23T11:55:01.597Z,20320.00
2018-07-23T11:56:33.556Z,19840.00
2018-07-23T11:59:36.121Z,20512.00
2018-07-23T12:01:07.802Z,20608.00
2018-07-23T12:02:39.582Z,21664.00
2018-07-23T12:04:10.867Z,22528.00
2018-07-23T12:05:42.451Z,22624.00
2018-07-23T12:07:14.013Z,23616.00
2018-07-23T12:10:17.466Z,25856.00
2018-07-23T12:11:49.057Z,25536.00
2018-07-23T12:13:20.319Z,26880.00
2018-07-23T12:14:52.098Z,30688.00
2018-07-23T12:16:23.778Z,34048.00
2018-07-23T12:17:55.682Z,35328.00
2018-07-23T12:19:26.824Z,40256.00
2018-07-23T12:20:58.373Z,40192.00
2018-07-23T12:22:29.790Z,40672.00
2018-07-23T12:24:01.370Z,39520.00
2018-07-23T12:25:32.947Z,40864.00
2018-07-23T12:27:04.531Z,42304.00
2018-07-23T12:28:36.708Z,43008.00
2018-07-23T12:30:07.681Z,45984.00
2018-07-23T12:31:39.543Z,47008.00
2018-07-23T12:33:10.848Z,44992.00
2018-07-23T12:34:42.420Z,46112.00
2018-07-23T12:36:14.052Z,45632.00
2018-07-23T12:39:17.297Z,47360.00
2018-07-23T12:40:49.040Z,41344.00
2018-07-23T12:43:51.898Z,42720.00
2018-07-23T12:45:23.546Z,34176.00
2018-07-23T12:46:55.059Z,46752.00
2018-07-23T12:48:26.735Z,49248.00
2018-07-23T12:49:58.573Z,53088.00
2018-07-23T12:53:01.376Z,47744.00
2018-07-23T12:54:33.124Z,48480.00
2018-07-23T12:57:36.121Z,62560.00
2018-07-23T12:59:08.043Z,67104.00
2018-07-23T13:00:39.283Z,65408.00
2018-07-23T13:02:10.853Z,68192.00
2018-07-23T13:03:42.443Z,66944.00
2018-07-23T13:05:14.101Z,63584.00
2018-07-23T13:08:18.814Z,71008.00
2018-07-23T13:09:48.966Z,71520.00
2018-07-23T13:11:20.636Z,69664.00
2018-07-23T13:12:52.216Z,58560.00
2018-07-23T13:14:24.136Z,47136.00
2018-07-23T13:15:55.079Z,45696.00
2018-07-23T13:17:27.763Z,47680.00
2018-07-23T13:20:29.852Z,40512.00
2018-07-23T13:22:01.401Z,40160.00
2018-07-23T13:23:33.509Z,40128.00
2018-07-23T13:25:04.562Z,39456.00
2018-07-23T13:26:36.447Z,41024.00
2018-07-23T13:28:07.723Z,43712.00
2018-07-23T13:29:39.833Z,45664.00
2018-07-23T13:31:10.885Z,48544.00
2018-07-23T13:32:42.465Z,50752.00
2018-07-23T13:34:14.046Z,46496.00
2018-07-23T13:37:17.510Z,51232.00
2018-07-23T13:38:48.789Z,51360.00
2018-07-23T13:40:20.370Z,48384.00
2018-07-23T13:41:52.257Z,51040.00
2018-07-23T13:44:55.167Z,49344.00
2018-07-23T13:46:26.716Z,48800.00
2018-07-23T13:47:58.278Z,49472.00
2018-07-23T13:49:29.860Z,48576.00
2018-07-23T13:51:01.444Z,49344.00
2018-07-23T13:52:33.031Z,47424.00
2018-07-23T13:54:04.604Z,52320.00
2018-07-23T13:55:36.427Z,57504.00
2018-07-23T13:58:40.271Z,49984.00
2018-07-23T14:00:10.930Z,52416.00
2018-07-23T14:04:45.678Z,61568.00
2018-07-23T14:06:17.258Z,61920.00
2018-07-23T14:07:48.840Z,61088.00
2018-07-23T14:09:20.625Z,57408.00
2018-07-23T14:10:52.217Z,60480.00
2018-07-23T14:12:23.638Z,66656.00
2018-07-23T14:13:55.177Z,63392.00
2018-07-23T14:15:26.779Z,65824.00
2018-07-23T14:16:58.443Z,56608.00
2018-07-23T14:20:02.073Z,54400.00
2018-07-23T14:21:33.093Z,56384.00
2018-07-23T14:23:04.658Z,54560.00
2018-07-23T14:24:36.546Z,54208.00
2018-07-23T14:27:39.815Z,49504.00
2018-07-23T14:29:11.349Z,51424.00
2018-07-23T14:30:43.851Z,49952.00
2018-07-23T14:32:14.146Z,44416.00
2018-07-23T14:35:17.419Z,49760.00
2018-07-23T14:36:48.892Z,52288.00
2018-07-23T14:38:20.586Z,56256.00
2018-07-23T14:39:52.092Z,54208.00
2018-07-23T14:42:55.219Z,51264.00
2018-07-23T14:44:26.808Z,44544.00
2018-07-23T14:45:58.380Z,48192.00
2018-07-23T14:49:01.645Z,63936.00
2018-07-23T14:50:33.123Z,64160.00
2018-07-23T14:52:04.726Z,66784.00
2018-07-23T14:53:36.285Z,61024.00
2018-07-23T14:55:07.968Z,65504.00
2018-07-23T14:56:39.756Z,66080.00
2018-07-23T14:58:11.036Z,61888.00
2018-07-23T14:59:42.917Z,59648.00
2018-07-23T15:01:14.195Z,59392.00
2018-07-23T15:02:45.778Z,57920.00
2018-07-23T15:04:17.562Z,59200.00
2018-07-23T15:05:48.943Z,57472.00
2018-07-23T15:07:20.524Z,62144.00
2018-07-23T15:08:52.108Z,61696.00
2018-07-23T15:10:23.894Z,55584.00
2018-07-23T15:11:55.800Z,54400.00
2018-07-23T15:13:26.954Z,53632.00
2018-07-23T15:14:58.437Z,54752.00
2018-07-23T15:18:01.904Z,57984.00
2018-07-23T15:19:33.901Z,53568.00
2018-07-23T15:21:04.766Z,54080.00
2018-07-23T15:22:36.348Z,55680.00
2018-07-23T15:24:08.503Z,56768.00
2018-07-23T15:25:39.514Z,60032.00
2018-07-23T15:27:11.624Z,69216.00
2018-07-23T15:30:14.269Z,70720.00
2018-07-23T15:31:46.296Z,72224.00
2018-07-23T15:33:17.457Z,72512.00
2018-07-23T15:34:49.012Z,78976.00
2018-07-23T15:36:20.795Z,77376.00
2018-07-23T15:37:52.477Z,82432.00
2018-07-23T15:39:23.759Z,79808.00
2018-07-23T15:40:55.342Z,75424.00
2018-07-23T15:42:27.126Z,80224.00
2018-07-23T15:43:58.846Z,78976.00
2018-07-23T15:45:30.503Z,80512.00
2018-07-23T15:47:01.877Z,79296.00
2018-07-23T15:48:33.258Z,85760.00
2018-07-23T15:53:08.109Z,80320.00
2018-07-23T15:54:39.593Z,87872.00
2018-07-23T15:56:11.380Z,81824.00
2018-07-23T15:59:14.345Z,99360.00
2018-07-23T16:03:49.099Z,90848.00
2018-07-23T16:05:20.698Z,66848.00
2018-07-23T16:08:23.854Z,81536.00
2018-07-23T16:09:55.641Z,84576.00
2018-07-23T16:11:28.056Z,70432.00
2018-07-23T16:12:58.637Z,67584.00
2018-07-23T16:14:30.192Z,58976.00
2018-07-23T16:16:01.777Z,63936.00
2018-07-23T16:17:33.363Z,68736.00
2018-07-23T16:19:04.947Z,71360.00
2018-07-23T16:20:36.529Z,81856.00
2018-07-23T16:22:08.113Z,83200.00
2018-07-23T16:23:39.696Z,76448.00
2018-07-23T16:25:11.287Z,70496.00
2018-07-23T16:26:42.865Z,71520.00
2018-07-23T16:28:14.977Z,73504.00
2018-07-23T16:29:46.138Z,82688.00
2018-07-23T16:31:17.618Z,80352.00
2018-07-23T16:32:49.203Z,90784.00
2018-07-23T16:35:52.371Z,67008.00
2018-07-23T16:37:23.955Z,57952.00
2018-07-23T16:38:55.540Z,56992.00
2018-07-23T16:43:30.394Z,62656.00
2018-07-23T16:46:34.012Z,58336.00
2018-07-23T16:53:03.637Z,80896.00
2018-07-23T16:54:35.221Z,49184.00
2018-07-23T16:56:07.108Z,47296.00
2018-07-23T16:57:38.366Z,48096.00
2018-07-23T17:00:41.485Z,64896.00
2018-07-23T17:02:13.079Z,61472.00
2018-07-23T17:03:44.661Z,71136.00
2018-07-23T17:05:16.548Z,70784.00
2018-07-23T17:11:22.977Z,42240.00
2018-07-23T17:12:54.160Z,36256.00
2018-07-23T17:14:25.942Z,41472.00
2018-07-23T17:17:41.291Z,68480.00
2018-07-23T17:19:12.570Z,61920.00
2018-07-23T17:20:44.184Z,53408.00
2018-07-23T17:22:15.491Z,48384.00
2018-07-23T17:23:47.054Z,49536.00
2018-07-23T17:25:18.643Z,45248.00
2018-07-23T17:26:50.945Z,43552.00
2018-07-23T17:28:22.049Z,43904.00
2018-07-23T17:29:53.381Z,47840.00
2018-07-23T17:31:25.168Z,49344.00
2018-07-23T17:32:57.046Z,52736.00
2018-07-23T17:34:28.332Z,66656.00
2018-07-23T17:35:59.729Z,62592.00
2018-07-23T17:39:02.906Z,63904.00
2018-07-23T17:40:34.512Z,61440.00
2018-07-23T17:42:06.049Z,73536.00
2018-07-23T17:43:37.633Z,61760.00
2018-07-23T17:45:09.748Z,55584.00
2018-07-23T17:49:44.581Z,62144.00
2018-07-23T17:51:15.551Z,60544.00
2018-07-23T17:52:47.739Z,70240.00
2018-07-23T17:54:19.351Z,57184.00
2018-07-23T17:55:51.899Z,53632.00
2018-07-23T17:57:23.760Z,59424.00
2018-07-23T17:58:53.782Z,63776.00
2018-07-23T18:00:26.487Z,57728.00
2018-07-23T18:01:58.140Z,60608.00
2018-07-23T18:03:31.211Z,44224.00
2018-07-23T18:05:01.680Z,51520.00
2018-07-23T18:06:32.498Z,51456.00
2018-07-23T18:08:03.206Z,51552.00
2018-07-23T18:09:34.579Z,53952.00
2018-07-23T18:11:06.517Z,44992.00
2018-07-23T18:12:38.236Z,37696.00
2018-07-23T18:14:10.780Z,51744.00
2018-07-23T18:15:40.897Z,56288.00
2018-07-23T18:18:44.132Z,59776.00
2018-07-23T18:20:15.657Z,50720.00
2018-07-23T18:21:47.580Z,37216.00
2018-07-23T18:23:19.020Z,41728.00
2018-07-23T18:24:50.749Z,49568.00
2018-07-23T18:27:53.561Z,56032.00
2018-07-23T18:29:25.143Z,50912.00
2018-07-23T18:30:56.828Z,50880.00
2018-07-23T18:32:28.310Z,49312.00
2018-07-23T18:34:00.096Z,52000.00
2018-07-23T18:37:03.175Z,50752.00
2018-07-23T18:38:34.826Z,50784.00
2018-07-23T18:40:06.229Z,50144.00
2018-07-23T18:41:37.806Z,49920.00
2018-07-23T18:43:09.488Z,47072.00
2018-07-23T18:44:40.971Z,43936.00
2018-07-23T18:46:13.770Z,42144.00
2018-07-23T18:47:44.146Z,40992.00
2018-07-23T18:49:15.722Z,37376.00
2018-07-23T18:50:47.566Z,39264.00
2018-07-23T18:52:18.885Z,41664.00
2018-07-23T18:55:22.051Z,38528.00
2018-07-23T18:58:25.216Z,37440.00
2018-07-23T18:59:56.813Z,35616.00
2018-07-23T19:01:28.482Z,35616.00
2018-07-23T19:04:31.547Z,32896.00
2018-07-23T19:07:34.912Z,29888.00
2018-07-23T19:09:06.410Z,29152.00
2018-07-23T19:10:38.046Z,27552.00
2018-07-23T19:12:09.456Z,26464.00
2018-07-23T19:13:41.038Z,28672.00
2018-07-23T19:15:12.629Z,34720.00
2018-07-23T19:18:15.783Z,20864.00
2018-07-23T19:19:47.668Z,20736.00
2018-07-23T19:21:18.953Z,22720.00
2018-07-23T19:24:22.149Z,26272.00
2018-07-23T19:25:54.217Z,24576.00
2018-07-23T19:27:25.275Z,23712.00
2018-07-23T19:28:56.854Z,23712.00
2018-07-23T19:30:28.437Z,22784.00
2018-07-23T19:32:00.221Z,22240.00
2018-07-23T19:33:31.599Z,21440.00
2018-07-23T19:35:03.180Z,20384.00
2018-07-23T19:36:35.071Z,20000.00
2018-07-23T19:38:06.442Z,19008.00
2018-07-23T19:39:37.922Z,18400.00
2018-07-23T19:41:09.512Z,17952.00
2018-07-23T19:42:41.092Z,17152.00
2018-07-23T19:44:13.059Z,16352.00
2018-07-23T19:45:44.246Z,16000.00
2018-07-23T19:47:15.825Z,15264.00
2018-07-23T19:48:47.410Z,14688.00
2018-07-23T19:50:18.987Z,13856.00
2018-07-23T19:51:50.872Z,13312.00
2018-07-23T19:53:22.495Z,12708.00
2018-07-23T19:54:54.258Z,12196.00
2018-07-23T19:56:25.410Z,11916.00
2018-07-23T19:57:56.894Z,11264.00
2018-07-23T19:59:28.470Z,10748.00
2018-07-23T20:01:00.084Z,10368.00
2018-07-23T20:02:31.629Z,10056.00
2018-07-23T20:04:03.212Z,9416.00
2018-07-23T20:05:35.094Z,8792.00
2018-07-23T20:07:06.368Z,7912.00
2018-07-23T20:08:37.949Z,7252.00
2018-07-23T20:10:09.528Z,6740.00
2018-07-23T20:11:41.105Z,6264.00
2018-07-23T20:13:12.684Z,5640.00
2018-07-23T20:14:44.363Z,5028.00
2018-07-23T20:16:16.044Z,4544.00
2018-07-23T20:17:47.471Z,4016.00
2018-07-23T20:19:19.334Z,3560.00
2018-07-23T20:20:50.628Z,3200.00
2018-07-23T20:22:22.671Z,2832.00
2018-07-23T20:25:25.311Z,2248.00
2018-07-23T20:26:56.890Z,2016.00
2018-07-23T20:28:28.791Z,1768.00
2018-07-23T20:30:00.047Z,1548.00
2018-07-23T20:31:31.825Z,1352.00
2018-07-23T20:33:03.451Z,1172.00
2018-07-23T20:34:34.776Z,1008.00
2018-07-23T20:36:06.352Z,864.00
2018-07-23T20:39:09.511Z,624.00